createdAt,value
2023-01-30T00:01:55.442Z,0.89
2023-01-30T00:04:23.390Z,0.83
2023-01-30T00:06:50.842Z,0.84
2023-01-30T00:09:18.300Z,0.84
2023-01-30T00:11:46.907Z,0.76
2023-01-30T00:14:14.606Z,0.87
2023-01-30T00:16:42.944Z,0.88
2023-01-30T00:19:10.925Z,0.88
2023-01-30T00:21:38.477Z,0.82
2023-01-30T00:24:06.660Z,0.72
2023-01-30T00:26:34.626Z,0.44
2023-01-30T00:29:02.325Z,0.48
2023-01-30T00:31:31.300Z,0.54
2023-01-30T00:33:59.194Z,0.42
2023-01-30T00:36:27.171Z,0.43
2023-01-30T00:38:57.173Z,0.55
2023-01-30T00:41:44.993Z,0.43
2023-01-30T00:44:38.913Z,0.44
2023-01-30T00:47:09.382Z,0.40
2023-01-30T00:49:37.884Z,0.43
2023-01-30T00:52:06.133Z,0.22
2023-01-30T00:54:34.592Z,0.18
2023-01-30T00:57:01.955Z,0.21
2023-01-30T00:59:29.254Z,0.16
2023-01-30T01:01:56.803Z,0.12
2023-01-30T01:04:24.168Z,0.06
2023-01-30T01:06:51.553Z,0.11
2023-01-30T01:09:20.113Z,0.24
2023-01-30T01:11:47.479Z,0.23
2023-01-30T01:14:14.662Z,0.32
2023-01-30T01:16:42.383Z,0.41
2023-01-30T01:19:09.859Z,0.50
2023-01-30T01:21:37.355Z,0.51
2023-01-30T01:24:05.521Z,0.61
2023-01-30T01:26:34.119Z,0.50
2023-01-30T01:29:01.535Z,0.51
2023-01-30T01:31:30.269Z,0.45
2023-01-30T01:33:57.789Z,0.40
2023-01-30T01:39:13.449Z,0.48
2023-01-30T01:41:40.778Z,0.44
2023-01-30T01:44:09.434Z,0.42
2023-01-30T01:46:36.934Z,0.14
2023-01-30T01:49:33.873Z,0.02
2023-01-30T01:52:04.192Z,0.16
2023-01-30T01:54:34.626Z,0.18
2023-01-30T01:57:03.285Z,0.13
2023-01-30T01:59:32.259Z,0.11
2023-01-30T02:02:01.343Z,0.14
2023-01-30T02:04:48.244Z,0.12
2023-01-30T02:07:15.905Z,0.10
2023-01-30T02:09:43.691Z,-0.13
2023-01-30T02:12:11.462Z,0.09
2023-01-30T02:14:38.874Z,0.02
2023-01-30T02:17:06.197Z,0.06
2023-01-30T02:19:43.427Z,0.02
2023-01-30T02:22:10.616Z,-0.14
2023-01-30T02:24:50.686Z,-0.12
2023-01-30T02:27:23.152Z,-0.14
2023-01-30T02:29:56.257Z,-0.01
2023-01-30T02:32:24.004Z,-0.08
2023-01-30T02:35:11.847Z,-0.02
2023-01-30T02:37:45.132Z,0.06
2023-01-30T02:40:16.937Z,-0.03
2023-01-30T02:42:50.489Z,-0.17
2023-01-30T02:45:22.572Z,-0.20
2023-01-30T02:48:12.584Z,-0.33
2023-01-30T02:50:43.557Z,-0.18
2023-01-30T02:53:10.975Z,-0.06
2023-01-30T02:55:40.801Z,-0.12
2023-01-30T02:58:08.623Z,-0.09
2023-01-30T03:00:48.672Z,-0.18
2023-01-30T03:03:22.808Z,-0.26
2023-01-30T03:05:53.931Z,-0.15
2023-01-30T03:08:36.886Z,-0.17
2023-01-30T03:11:07.734Z,-0.31
2023-01-30T03:13:47.748Z,-0.51
2023-01-30T03:16:17.881Z,-0.63
2023-01-30T03:18:45.686Z,-0.26
2023-01-30T03:21:15.747Z,-0.24
2023-01-30T03:23:47.512Z,-0.21
2023-01-30T03:26:19.484Z,-0.44
2023-01-30T03:28:49.679Z,-0.47
2023-01-30T03:31:17.746Z,-0.33
2023-01-30T03:33:45.625Z,-0.56
2023-01-30T03:36:13.568Z,-0.31
2023-01-30T03:38:41.420Z,-0.37
2023-01-30T03:41:09.343Z,-0.42
2023-01-30T03:43:37.091Z,-0.45
2023-01-30T03:46:05.881Z,-0.57
2023-01-30T03:48:33.368Z,-0.44
2023-01-30T03:51:01.147Z,-0.65
2023-01-30T03:53:29.895Z,-0.54
2023-01-30T03:55:57.353Z,-0.76
2023-01-30T03:58:25.810Z,-0.82
2023-01-30T04:00:57.398Z,-0.94
2023-01-30T04:03:25.947Z,-0.96
2023-01-30T04:05:55.798Z,-0.94
2023-01-30T04:08:23.351Z,-0.93
2023-01-30T04:10:51.204Z,-0.82
2023-01-30T04:13:18.843Z,-0.61
2023-01-30T04:15:46.350Z,-0.90
2023-01-30T04:18:14.721Z,-0.82
2023-01-30T04:20:42.915Z,-0.83
2023-01-30T04:23:10.815Z,-0.68
2023-01-30T04:25:39.326Z,-0.71
2023-01-30T04:28:07.908Z,-0.74
2023-01-30T04:30:35.761Z,-0.69
2023-01-30T04:33:04.786Z,-0.79
2023-01-30T04:35:32.770Z,-0.80
2023-01-30T04:38:00.645Z,-0.92
2023-01-30T04:40:29.109Z,-1.01
2023-01-30T04:42:56.772Z,-0.99
2023-01-30T04:45:24.858Z,-0.86
2023-01-30T04:47:52.804Z,-0.79
2023-01-30T04:50:20.549Z,-0.84
2023-01-30T04:52:48.103Z,-0.89
2023-01-30T04:55:16.832Z,-1.11
2023-01-30T04:57:44.475Z,-0.90
2023-01-30T05:00:12.739Z,-0.97
2023-01-30T05:02:41.830Z,-1.07
2023-01-30T05:05:09.778Z,-1.04
2023-01-30T05:07:37.225Z,-0.96
2023-01-30T05:10:05.816Z,-1.05
2023-01-30T05:12:33.564Z,-0.99
2023-01-30T05:15:01.567Z,-1.04
2023-01-30T05:17:29.388Z,-1.01
2023-01-30T05:19:57.827Z,-1.03
2023-01-30T05:22:25.154Z,-1.07
2023-01-30T05:24:52.804Z,-1.20
2023-01-30T05:27:20.040Z,-1.00
2023-01-30T05:29:47.326Z,-0.97
2023-01-30T05:32:15.236Z,-0.89
2023-01-30T05:34:42.450Z,-0.90
2023-01-30T05:37:09.929Z,-0.83
2023-01-30T05:39:37.602Z,-1.01
2023-01-30T05:42:04.915Z,-1.04
2023-01-30T05:44:32.319Z,-1.35
2023-01-30T05:47:00.099Z,-1.37
2023-01-30T05:49:27.339Z,-1.18
2023-01-30T05:51:54.948Z,-1.12
2023-01-30T05:54:22.738Z,-1.13
2023-01-30T05:56:50.567Z,-1.01
2023-01-30T05:59:18.760Z,-1.45
2023-01-30T06:01:46.458Z,-1.35
2023-01-30T06:04:13.992Z,-1.25
2023-01-30T06:06:41.406Z,-1.35
2023-01-30T06:09:09.660Z,-1.29
2023-01-30T06:11:37.297Z,-1.25
2023-01-30T06:14:04.591Z,-1.29
2023-01-30T06:16:32.025Z,-1.36
2023-01-30T06:18:59.822Z,-1.35
2023-01-30T06:21:27.271Z,-1.24
2023-01-30T06:23:54.639Z,-1.17
2023-01-30T06:26:22.254Z,-1.17
2023-01-30T06:28:49.901Z,-1.09
2023-01-30T06:31:18.500Z,-1.09
2023-01-30T06:33:46.210Z,-1.31
2023-01-30T06:36:13.529Z,-0.91
2023-01-30T06:38:40.724Z,-1.12
2023-01-30T06:41:08.370Z,-1.18
2023-01-30T06:43:35.608Z,-1.20
2023-01-30T06:46:02.861Z,-1.31
2023-01-30T06:48:30.894Z,-1.11
2023-01-30T06:50:58.189Z,-1.25
2023-01-30T06:53:30.384Z,-0.99
2023-01-30T06:55:58.598Z,-0.63
2023-01-30T06:58:26.464Z,-0.63
2023-01-30T07:00:54.052Z,-0.84
2023-01-30T07:03:21.827Z,-0.83
2023-01-30T07:05:49.411Z,-0.24
2023-01-30T07:08:17.312Z,-0.43
2023-01-30T07:10:45.505Z,-0.50
2023-01-30T07:13:13.177Z,-0.20
2023-01-30T07:15:40.694Z,0.29
2023-01-30T07:18:08.800Z,0.33
2023-01-30T07:20:36.280Z,0.37
2023-01-30T07:23:03.972Z,0.40
2023-01-30T07:25:31.898Z,0.25
2023-01-30T07:28:01.234Z,0.24
2023-01-30T07:30:32.255Z,0.31
2023-01-30T07:33:00.693Z,0.08
2023-01-30T07:35:30.382Z,0.36
2023-01-30T07:37:58.380Z,0.33
2023-01-30T07:40:26.912Z,0.60
2023-01-30T07:43:06.368Z,0.60
2023-01-30T07:45:45.217Z,0.97
2023-01-30T07:48:15.158Z,1.02
2023-01-30T07:50:43.244Z,0.96
2023-01-30T07:53:14.419Z,0.86
2023-01-30T07:55:42.484Z,1.04
2023-01-30T07:58:13.805Z,1.12
2023-01-30T08:00:41.419Z,1.11
2023-01-30T08:03:16.574Z,1.27
2023-01-30T08:05:46.953Z,1.51
2023-01-30T08:08:15.091Z,1.89
2023-01-30T08:10:43.185Z,1.95
2023-01-30T08:13:10.943Z,1.88
2023-01-30T08:15:38.889Z,2.13
2023-01-30T08:18:09.132Z,2.03
2023-01-30T08:20:36.677Z,1.74
2023-01-30T08:23:05.274Z,1.83
2023-01-30T08:25:32.770Z,1.79
2023-01-30T08:28:00.651Z,1.86
2023-01-30T08:30:30.586Z,2.00
2023-01-30T08:32:58.798Z,2.33
2023-01-30T08:35:26.332Z,2.55
2023-01-30T08:37:56.317Z,2.41
2023-01-30T08:40:23.775Z,2.42
2023-01-30T08:42:51.355Z,2.46
2023-01-30T08:45:19.236Z,2.23
2023-01-30T08:47:47.199Z,2.43
2023-01-30T08:50:14.740Z,2.30
2023-01-30T08:52:42.673Z,2.01
2023-01-30T08:55:10.679Z,2.40
2023-01-30T08:57:38.248Z,2.70
2023-01-30T09:00:06.770Z,2.87
2023-01-30T09:02:34.535Z,2.95
2023-01-30T09:05:02.159Z,3.03
2023-01-30T09:07:30.039Z,3.31
2023-01-30T09:09:57.525Z,3.25
2023-01-30T09:12:25.000Z,2.94
2023-01-30T09:14:58.050Z,3.26
2023-01-30T09:17:25.995Z,3.41
2023-01-30T09:19:54.054Z,3.22
2023-01-30T09:22:21.450Z,3.34
2023-01-30T09:24:48.899Z,3.68
2023-01-30T09:27:17.033Z,3.84
2023-01-30T09:29:45.534Z,3.56
2023-01-30T09:32:13.140Z,2.87
2023-01-30T09:34:40.973Z,3.28
2023-01-30T09:37:08.506Z,3.60
2023-01-30T09:39:36.089Z,3.58
2023-01-30T09:42:06.826Z,3.79
2023-01-30T09:45:12.763Z,3.75
2023-01-30T09:47:56.127Z,3.70
2023-01-30T09:50:48.375Z,3.55
2023-01-30T09:53:56.775Z,3.09
2023-01-30T09:56:25.789Z,3.67
2023-01-30T09:59:02.612Z,3.66
2023-01-30T10:01:37.341Z,3.95
2023-01-30T10:04:17.772Z,3.74
2023-01-30T10:07:11.663Z,3.93
2023-01-30T10:09:42.630Z,3.74
2023-01-30T10:12:19.944Z,3.97
2023-01-30T10:14:55.488Z,4.17
2023-01-30T10:17:38.773Z,4.21
2023-01-30T10:20:22.334Z,4.50
2023-01-30T10:23:10.933Z,4.36
2023-01-30T10:25:45.438Z,4.57
2023-01-30T10:28:38.795Z,4.37
2023-01-30T10:31:19.210Z,4.22
2023-01-30T10:34:11.735Z,4.32
2023-01-30T10:36:54.830Z,4.45
2023-01-30T10:39:28.377Z,4.31
2023-01-30T10:42:11.945Z,3.69
2023-01-30T10:44:42.965Z,4.50
2023-01-30T10:47:22.089Z,4.57
2023-01-30T10:49:52.491Z,4.16
2023-01-30T10:52:50.914Z,4.36
2023-01-30T10:55:40.054Z,4.74
2023-01-30T10:58:32.758Z,5.13
2023-01-30T11:01:04.541Z,4.93
2023-01-30T11:03:47.236Z,4.74
2023-01-30T11:06:17.667Z,4.70
2023-01-30T11:08:45.729Z,4.77
2023-01-30T11:11:27.685Z,4.46
2023-01-30T11:14:09.554Z,4.45
2023-01-30T11:16:44.991Z,4.16
2023-01-30T11:19:20.064Z,3.94
2023-01-30T11:21:52.937Z,4.79
2023-01-30T11:24:23.645Z,4.87
2023-01-30T11:26:53.174Z,4.94
2023-01-30T11:29:32.816Z,4.79
2023-01-30T11:32:19.998Z,5.32
2023-01-30T11:35:04.584Z,5.05
2023-01-30T11:37:34.658Z,4.86
2023-01-30T11:40:31.165Z,4.99
2023-01-30T11:43:03.369Z,5.10
2023-01-30T11:45:36.824Z,5.14
2023-01-30T11:48:23.559Z,5.09
2023-01-30T11:51:04.544Z,5.29
2023-01-30T11:53:51.318Z,5.16
2023-01-30T11:56:33.888Z,5.34
2023-01-30T11:59:07.519Z,5.54
2023-01-30T12:01:36.576Z,5.21
2023-01-30T12:04:09.444Z,5.44
2023-01-30T12:06:39.684Z,5.43
2023-01-30T12:09:32.250Z,5.42
2023-01-30T12:11:59.868Z,5.22
2023-01-30T12:14:45.762Z,5.38
2023-01-30T12:17:23.717Z,5.62
2023-01-30T12:20:06.275Z,5.48
2023-01-30T12:22:58.567Z,5.18
2023-01-30T12:25:27.291Z,4.92
2023-01-30T12:28:03.366Z,4.99
2023-01-30T12:31:36.231Z,5.23
2023-01-30T12:34:04.515Z,5.44
2023-01-30T12:37:02.320Z,5.11
2023-01-30T12:40:07.227Z,4.82
2023-01-30T12:43:01.504Z,4.62
2023-01-30T12:45:34.776Z,5.10
2023-01-30T12:48:30.329Z,5.18
2023-01-30T12:51:10.722Z,5.21
2023-01-30T12:54:00.398Z,5.44
2023-01-30T12:56:33.940Z,6.02
2023-01-30T12:59:22.364Z,5.67
2023-01-30T13:01:55.798Z,5.48
2023-01-30T13:04:56.202Z,5.33
2023-01-30T13:07:49.513Z,5.16
2023-01-30T13:10:26.540Z,4.74
2023-01-30T13:13:12.255Z,5.08
2023-01-30T13:16:04.511Z,4.65
2023-01-30T13:18:53.364Z,4.71
2023-01-30T13:21:25.999Z,4.61
2023-01-30T13:24:24.719Z,4.25
2023-01-30T13:26:55.060Z,4.33
2023-01-30T13:29:25.528Z,4.84
2023-01-30T13:32:00.322Z,4.79
2023-01-30T13:34:35.039Z,4.71
2023-01-30T13:37:07.801Z,4.48
2023-01-30T13:39:58.661Z,5.16
2023-01-30T13:42:33.565Z,5.45
2023-01-30T13:45:02.060Z,5.25
2023-01-30T13:47:48.673Z,5.14
2023-01-30T13:50:42.105Z,5.52
2023-01-30T13:53:40.098Z,5.56
2023-01-30T13:56:41.232Z,5.76
2023-01-30T13:59:21.772Z,5.59
2023-01-30T14:02:04.796Z,5.44
2023-01-30T14:04:39.654Z,5.44
2023-01-30T14:07:39.469Z,5.46
2023-01-30T14:10:07.365Z,5.62
2023-01-30T14:12:51.093Z,5.44
2023-01-30T14:15:24.456Z,5.89
2023-01-30T14:18:02.454Z,5.73
2023-01-30T14:20:36.120Z,5.49
2023-01-30T14:23:20.531Z,4.71
2023-01-30T14:25:53.408Z,5.38
2023-01-30T14:28:20.943Z,4.95
2023-01-30T14:30:53.714Z,5.67
2023-01-30T14:33:21.206Z,5.11
2023-01-30T14:36:11.545Z,5.24
2023-01-30T14:38:40.788Z,5.37
2023-01-30T14:41:23.984Z,5.39
2023-01-30T14:43:59.005Z,5.92
2023-01-30T14:46:26.673Z,5.47
2023-01-30T14:49:05.079Z,5.43
2023-01-30T14:51:37.267Z,5.07
2023-01-30T14:54:08.552Z,5.17
2023-01-30T14:56:46.725Z,5.33
2023-01-30T14:59:17.212Z,5.32
2023-01-30T15:02:14.409Z,5.12
2023-01-30T15:05:05.641Z,5.19
2023-01-30T15:07:40.984Z,5.77
2023-01-30T15:10:14.588Z,5.67
2023-01-30T15:13:00.814Z,5.21
2023-01-30T15:15:34.266Z,5.23
2023-01-30T15:18:28.187Z,4.66
2023-01-30T15:21:26.810Z,5.34
2023-01-30T15:24:16.697Z,5.28
2023-01-30T15:27:29.030Z,5.01
2023-01-30T15:30:22.862Z,5.48
2023-01-30T15:33:07.814Z,5.71
2023-01-30T15:35:35.801Z,5.60
2023-01-30T15:38:03.320Z,5.35
2023-01-30T15:40:31.456Z,5.29
2023-01-30T15:43:04.563Z,5.36
2023-01-30T15:45:49.211Z,5.45
2023-01-30T15:48:29.183Z,5.45
2023-01-30T15:50:59.486Z,5.59
2023-01-30T15:53:31.225Z,5.74
2023-01-30T15:56:01.055Z,5.52
2023-01-30T15:58:29.503Z,5.81
2023-01-30T16:00:59.763Z,5.63
2023-01-30T16:03:31.858Z,5.56
2023-01-30T16:05:59.612Z,5.23
2023-01-30T16:08:30.061Z,5.10
2023-01-30T16:10:58.026Z,5.12
2023-01-30T16:13:25.505Z,5.17
2023-01-30T16:15:54.605Z,4.88
2023-01-30T16:18:29.911Z,4.74
2023-01-30T16:21:02.398Z,4.84
2023-01-30T16:23:57.763Z,5.19
2023-01-30T16:26:25.631Z,5.10
2023-01-30T16:29:03.446Z,5.13
2023-01-30T16:31:33.158Z,5.28
2023-01-30T16:34:01.184Z,5.02
2023-01-30T16:36:45.807Z,5.17
2023-01-30T16:39:35.334Z,5.21
2023-01-30T16:42:25.564Z,5.28
2023-01-30T16:45:21.266Z,4.95
2023-01-30T16:47:49.186Z,5.00
2023-01-30T16:50:20.114Z,5.00
2023-01-30T16:52:52.064Z,5.02
2023-01-30T16:55:21.876Z,4.66
2023-01-30T16:58:01.168Z,4.91
2023-01-30T17:00:36.130Z,4.68
2023-01-30T17:03:18.521Z,4.63
2023-01-30T17:05:48.653Z,4.63
2023-01-30T17:08:48.265Z,4.77
2023-01-30T17:11:36.233Z,4.57
2023-01-30T17:14:31.315Z,4.62
2023-01-30T17:17:18.848Z,4.97
2023-01-30T17:19:46.797Z,4.81
2023-01-30T17:22:24.596Z,4.92
2023-01-30T17:24:54.118Z,4.85
2023-01-30T17:27:22.041Z,5.09
2023-01-30T17:29:49.713Z,4.81
2023-01-30T17:32:17.323Z,4.72
2023-01-30T17:34:45.380Z,5.04
2023-01-30T17:37:18.399Z,4.87
2023-01-30T17:39:46.238Z,4.88
2023-01-30T17:42:15.515Z,5.08
2023-01-30T17:44:42.947Z,5.08
2023-01-30T17:47:13.999Z,5.18
2023-01-30T17:49:41.628Z,5.18
2023-01-30T17:52:09.060Z,5.25
2023-01-30T17:54:36.960Z,5.33
2023-01-30T17:57:06.523Z,5.21
2023-01-30T17:59:34.004Z,5.39
2023-01-30T18:02:02.022Z,5.31
2023-01-30T18:04:29.956Z,5.41
2023-01-30T18:07:04.005Z,5.27
2023-01-30T18:09:32.270Z,5.48
2023-01-30T18:11:59.846Z,5.23
2023-01-30T18:14:27.873Z,5.14
2023-01-30T18:17:00.158Z,5.22
2023-01-30T18:19:28.575Z,5.16
2023-01-30T18:21:58.298Z,5.24
2023-01-30T18:24:26.095Z,5.20
2023-01-30T18:26:53.584Z,5.17
2023-01-30T18:29:21.577Z,5.35
2023-01-30T18:31:49.356Z,5.55
2023-01-30T18:34:16.906Z,5.27
2023-01-30T18:36:45.025Z,5.17
2023-01-30T18:39:12.944Z,5.29
2023-01-30T18:41:40.752Z,5.45
2023-01-30T18:44:10.642Z,5.29
2023-01-30T18:46:38.156Z,5.28
2023-01-30T18:49:06.569Z,5.28
2023-01-30T18:51:34.803Z,5.54
2023-01-30T18:54:02.497Z,5.10
2023-01-30T18:56:32.104Z,5.01
2023-01-30T18:59:04.954Z,5.47
2023-01-30T19:01:38.694Z,5.29
2023-01-30T19:04:09.293Z,5.28
2023-01-30T19:06:39.148Z,5.38
2023-01-30T19:09:07.567Z,5.33
2023-01-30T19:11:53.889Z,5.47
2023-01-30T19:14:21.757Z,5.23
2023-01-30T19:16:51.304Z,5.31
2023-01-30T19:19:19.007Z,5.26
2023-01-30T19:21:47.856Z,4.97
2023-01-30T19:24:16.360Z,4.98
2023-01-30T19:26:43.991Z,5.29
2023-01-30T19:29:11.759Z,5.38
2023-01-30T19:31:39.367Z,5.40
2023-01-30T19:34:07.855Z,5.53
2023-01-30T19:36:36.334Z,5.51
2023-01-30T19:39:05.944Z,5.49
2023-01-30T19:41:35.224Z,6.01
2023-01-30T19:44:06.036Z,5.90
2023-01-30T19:46:34.131Z,6.00
2023-01-30T19:49:03.412Z,6.18
2023-01-30T19:51:34.178Z,6.02
2023-01-30T19:54:06.961Z,5.79
2023-01-30T19:56:35.059Z,5.83
2023-01-30T19:59:03.106Z,5.93
2023-01-30T20:01:35.545Z,5.99
2023-01-30T20:04:06.133Z,6.02
2023-01-30T20:06:37.341Z,6.04
2023-01-30T20:09:07.470Z,6.07
2023-01-30T20:11:36.599Z,6.03
2023-01-30T20:14:06.594Z,6.13
2023-01-30T20:16:35.716Z,5.90
2023-01-30T20:19:06.492Z,5.83
2023-01-30T20:21:36.165Z,6.21
2023-01-30T20:24:04.416Z,6.19
2023-01-30T20:26:35.405Z,6.34
2023-01-30T20:29:04.657Z,6.33
2023-01-30T20:31:32.805Z,6.08
2023-01-30T20:34:02.592Z,6.21
2023-01-30T20:36:30.469Z,6.28
2023-01-30T20:39:01.863Z,6.37
2023-01-30T20:41:32.516Z,6.31
2023-01-30T20:44:00.711Z,6.20
2023-01-30T20:46:30.487Z,6.33
2023-01-30T20:49:01.314Z,6.22
2023-01-30T20:51:31.253Z,6.26
2023-01-30T20:54:01.602Z,6.15
2023-01-30T20:56:34.280Z,6.11
2023-01-30T20:59:03.548Z,6.09
2023-01-30T21:01:31.190Z,6.23
2023-01-30T21:03:58.650Z,6.05
2023-01-30T21:06:41.532Z,5.99
2023-01-30T21:09:15.241Z,5.97
2023-01-30T21:11:42.995Z,5.70
2023-01-30T21:14:10.823Z,5.73
2023-01-30T21:16:38.460Z,5.69
2023-01-30T21:19:08.526Z,5.75
2023-01-30T21:21:40.135Z,5.79
2023-01-30T21:24:12.525Z,5.81
2023-01-30T21:26:46.105Z,5.71
2023-01-30T21:29:15.726Z,5.38
2023-01-30T21:31:44.715Z,5.68
2023-01-30T21:34:12.916Z,5.45
2023-01-30T21:36:41.061Z,5.50
2023-01-30T21:39:31.226Z,5.08
2023-01-30T21:42:18.389Z,5.62
2023-01-30T21:44:47.021Z,5.63
2023-01-30T21:47:14.683Z,5.59
2023-01-30T21:49:43.993Z,5.37
2023-01-30T21:52:11.618Z,5.17
2023-01-30T21:54:39.373Z,5.60
2023-01-30T21:57:06.939Z,5.48
2023-01-30T21:59:35.310Z,5.69
2023-01-30T22:02:03.065Z,5.49
2023-01-30T22:04:30.968Z,5.32
2023-01-30T22:06:58.503Z,5.38
2023-01-30T22:09:26.021Z,5.26
2023-01-30T22:11:54.975Z,5.66
2023-01-30T22:14:22.740Z,5.69
2023-01-30T22:16:50.292Z,5.29
2023-01-30T22:19:17.983Z,5.16
2023-01-30T22:21:45.495Z,5.52
2023-01-30T22:24:13.277Z,5.68
2023-01-30T22:26:41.034Z,5.22
2023-01-30T22:29:09.331Z,5.39
2023-01-30T22:31:38.712Z,5.51
2023-01-30T22:34:06.701Z,5.42
2023-01-30T22:36:35.210Z,5.51
2023-01-30T22:39:03.664Z,5.38
2023-01-30T22:41:34.833Z,5.60
2023-01-30T22:44:03.488Z,5.44
2023-01-30T22:46:36.546Z,5.78
2023-01-30T22:49:05.714Z,5.69
2023-01-30T22:51:38.821Z,5.59
2023-01-30T22:54:10.606Z,5.42
2023-01-30T22:56:41.508Z,5.83
2023-01-30T22:59:09.602Z,5.67
2023-01-30T23:01:39.831Z,5.87
2023-01-30T23:04:11.811Z,5.75
2023-01-30T23:06:40.537Z,5.80
2023-01-30T23:09:10.232Z,5.89
2023-01-30T23:11:43.498Z,5.55
2023-01-30T23:14:15.209Z,5.51
2023-01-30T23:16:44.584Z,5.53
2023-01-30T23:19:13.730Z,5.47
2023-01-30T23:21:44.152Z,5.45
2023-01-30T23:24:17.620Z,5.63
2023-01-30T23:26:47.626Z,5.54
2023-01-30T23:29:18.691Z,5.57
2023-01-30T23:31:47.411Z,5.68
2023-01-30T23:34:18.173Z,5.64
2023-01-30T23:36:46.562Z,4.95
2023-01-30T23:39:14.838Z,5.18
2023-01-30T23:41:43.043Z,5.18
2023-01-30T23:44:10.991Z,5.18
2023-01-30T23:46:42.452Z,5.32
2023-01-30T23:49:15.138Z,5.42
2023-01-30T23:51:44.214Z,5.13
2023-01-30T23:54:13.753Z,5.02
2023-01-30T23:56:43.029Z,5.38
2023-01-30T23:59:11.261Z,4.94
